sensor_id;sensor_type;location;lat;lon;timestamp;temperature;humidity
17200;DHT22;8716;52.268;20.968;2022-11-15T00:01:35;8.00;99.90
17200;DHT22;8716;52.268;20.968;2022-11-15T00:04:22;8.00;99.90
17200;DHT22;8716;52.268;20.968;2022-11-15T00:07:09;8.00;99.90
17200;DHT22;8716;52.268;20.968;2022-11-15T00:10:11;8.00;99.90
17200;DHT22;8716;52.268;20.968;2022-11-15T00:13:00;8.00;99.90
17200;DHT22;8716;52.268;20.968;2022-11-15T00:15:46;8.00;99.90
17200;DHT22;8716;52.268;20.968;2022-11-15T00:18:33;8.00;99.90
17200;DHT22;8716;52.268;20.968;2022-11-15T00:21:21;8.00;99.90
17200;DHT22;8716;52.268;20.968;2022-11-15T00:24:08;8.00;99.90
17200;DHT22;8716;52.268;20.968;2022-11-15T00:26:55;8.00;99.90
17200;DHT22;8716;52.268;20.968;2022-11-15T00:29:43;8.00;99.90
17200;DHT22;8716;52.268;20.968;2022-11-15T00:32:32;8.00;99.90
17200;DHT22;8716;52.268;20.968;2022-11-15T00:35:20;8.00;99.90
17200;DHT22;8716;52.268;20.968;2022-11-15T00:38:06;8.00;99.90
17200;DHT22;8716;52.268;20.968;2022-11-15T00:40:53;8.00;99.90
17200;DHT22;8716;52.268;20.968;2022-11-15T00:43:41;8.00;99.90
17200;DHT22;8716;52.268;20.968;2022-11-15T00:46:30;7.90;99.90
17200;DHT22;8716;52.268;20.968;2022-11-15T00:49:17;8.00;99.90
17200;DHT22;8716;52.268;20.968;2022-11-15T00:52:04;8.00;99.90
17200;DHT22;8716;52.268;20.968;2022-11-15T00:54:51;7.90;99.90
17200;DHT22;8716;52.268;20.968;2022-11-15T00:57:38;7.90;99.90
17200;DHT22;8716;52.268;20.968;2022-11-15T01:00:25;7.90;99.90
17200;DHT22;8716;52.268;20.968;2022-11-15T01:03:13;7.90;99.90
17200;DHT22;8716;52.268;20.968;2022-11-15T01:06:01;7.90;99.90
17200;DHT22;8716;52.268;20.968;2022-11-15T01:08:47;7.90;99.90
17200;DHT22;8716;52.268;20.968;2022-11-15T01:11:34;8.00;99.90
17200;DHT22;8716;52.268;20.968;2022-11-15T01:14:21;8.00;99.90
17200;DHT22;8716;52.268;20.968;2022-11-15T01:17:09;8.00;99.90
17200;DHT22;8716;52.268;20.968;2022-11-15T01:19:58;8.00;99.90
17200;DHT22;8716;52.268;20.968;2022-11-15T01:22:44;8.00;99.90
17200;DHT22;8716;52.268;20.968;2022-11-15T01:25:31;7.90;99.90
17200;DHT22;8716;52.268;20.968;2022-11-15T01:28:18;7.80;99.90
17200;DHT22;8716;52.268;20.968;2022-11-15T01:31:08;7.80;99.90
17200;DHT22;8716;52.268;20.968;2022-11-15T01:33:56;7.90;99.90
17200;DHT22;8716;52.268;20.968;2022-11-15T01:36:44;7.90;99.90
17200;DHT22;8716;52.268;20.968;2022-11-15T01:39:31;7.90;99.90
17200;DHT22;8716;52.268;20.968;2022-11-15T01:42:18;7.90;99.90
17200;DHT22;8716;52.268;20.968;2022-11-15T01:45:07;7.90;99.90
17200;DHT22;8716;52.268;20.968;2022-11-15T01:47:59;7.90;99.90
17200;DHT22;8716;52.268;20.968;2022-11-15T01:50:46;7.90;99.90
17200;DHT22;8716;52.268;20.968;2022-11-15T01:53:34;7.90;99.90
17200;DHT22;8716;52.268;20.968;2022-11-15T01:56:25;7.90;99.90
17200;DHT22;8716;52.268;20.968;2022-11-15T01:59:14;7.90;99.90
17200;DHT22;8716;52.268;20.968;2022-11-15T02:02:01;7.90;99.90
17200;DHT22;8716;52.268;20.968;2022-11-15T02:04:48;7.90;99.90
17200;DHT22;8716;52.268;20.968;2022-11-15T02:07:36;7.90;99.90
17200;DHT22;8716;52.268;20.968;2022-11-15T02:10:24;7.90;99.90
17200;DHT22;8716;52.268;20.968;2022-11-15T02:13:11;7.90;99.90
17200;DHT22;8716;52.268;20.968;2022-11-15T02:16:03;7.90;99.90
17200;DHT22;8716;52.268;20.968;2022-11-15T02:18:57;7.80;99.90
17200;DHT22;8716;52.268;20.968;2022-11-15T02:21:49;7.80;99.90
17200;DHT22;8716;52.268;20.968;2022-11-15T02:25:00;7.80;99.90
17200;DHT22;8716;52.268;20.968;2022-11-15T02:28:05;7.80;99.90
17200;DHT22;8716;52.268;20.968;2022-11-15T02:31:03;7.80;99.90
17200;DHT22;8716;52.268;20.968;2022-11-15T02:33:54;7.70;99.90
17200;DHT22;8716;52.268;20.968;2022-11-15T02:36:52;7.70;99.90
17200;DHT22;8716;52.268;20.968;2022-11-15T02:39:49;7.70;99.90
17200;DHT22;8716;52.268;20.968;2022-11-15T02:42:39;7.70;99.90
17200;DHT22;8716;52.268;20.968;2022-11-15T02:45:59;7.70;99.90
17200;DHT22;8716;52.268;20.968;2022-11-15T02:48:48;7.70;99.90
17200;DHT22;8716;52.268;20.968;2022-11-15T02:51:35;7.60;99.90
17200;DHT22;8716;52.268;20.968;2022-11-15T02:54:23;7.70;99.90
17200;DHT22;8716;52.268;20.968;2022-11-15T02:57:13;7.70;99.90
17200;DHT22;8716;52.268;20.968;2022-11-15T03:00:06;7.70;99.90
17200;DHT22;8716;52.268;20.968;2022-11-15T03:03:14;7.70;99.90
17200;DHT22;8716;52.268;20.968;2022-11-15T03:06:09;7.70;99.90
17200;DHT22;8716;52.268;20.968;2022-11-15T03:09:04;7.80;99.90
17200;DHT22;8716;52.268;20.968;2022-11-15T03:11:57;7.80;99.90
17200;DHT22;8716;52.268;20.968;2022-11-15T03:14:51;7.80;99.90
17200;DHT22;8716;52.268;20.968;2022-11-15T03:17:45;7.80;99.90
17200;DHT22;8716;52.268;20.968;2022-11-15T03:20:37;7.80;99.90
17200;DHT22;8716;52.268;20.968;2022-11-15T03:23:24;7.80;99.90
17200;DHT22;8716;52.268;20.968;2022-11-15T03:26:14;7.80;99.90
17200;DHT22;8716;52.268;20.968;2022-11-15T03:29:06;7.80;99.90
17200;DHT22;8716;52.268;20.968;2022-11-15T03:31:58;7.80;99.90
17200;DHT22;8716;52.268;20.968;2022-11-15T03:34:50;7.80;99.90
17200;DHT22;8716;52.268;20.968;2022-11-15T03:37:45;7.70;99.90
17200;DHT22;8716;52.268;20.968;2022-11-15T03:40:38;7.80;99.90
17200;DHT22;8716;52.268;20.968;2022-11-15T03:43:32;7.70;99.90
17200;DHT22;8716;52.268;20.968;2022-11-15T03:46:24;7.70;99.90
17200;DHT22;8716;52.268;20.968;2022-11-15T03:49:14;7.70;99.90
17200;DHT22;8716;52.268;20.968;2022-11-15T03:52:04;7.70;99.90
17200;DHT22;8716;52.268;20.968;2022-11-15T03:54:55;7.80;99.90
17200;DHT22;8716;52.268;20.968;2022-11-15T03:57:43;7.70;99.90
17200;DHT22;8716;52.268;20.968;2022-11-15T04:00:30;7.70;99.90
17200;DHT22;8716;52.268;20.968;2022-11-15T04:03:17;7.60;99.90
17200;DHT22;8716;52.268;20.968;2022-11-15T04:06:04;7.60;99.90
17200;DHT22;8716;52.268;20.968;2022-11-15T04:08:51;7.60;99.90
17200;DHT22;8716;52.268;20.968;2022-11-15T04:11:40;7.60;99.90
17200;DHT22;8716;52.268;20.968;2022-11-15T04:14:26;7.60;99.90
17200;DHT22;8716;52.268;20.968;2022-11-15T04:17:13;7.60;99.90
17200;DHT22;8716;52.268;20.968;2022-11-15T04:20:00;7.60;99.90
17200;DHT22;8716;52.268;20.968;2022-11-15T04:23:05;7.60;99.90
17200;DHT22;8716;52.268;20.968;2022-11-15T04:26:13;7.60;99.90
17200;DHT22;8716;52.268;20.968;2022-11-15T04:29:02;7.60;99.90
17200;DHT22;8716;52.268;20.968;2022-11-15T04:32:15;7.60;99.90
17200;DHT22;8716;52.268;20.968;2022-11-15T04:35:02;7.50;99.90
17200;DHT22;8716;52.268;20.968;2022-11-15T04:37:49;7.50;99.90
17200;DHT22;8716;52.268;20.968;2022-11-15T04:40:37;7.50;99.90
17200;DHT22;8716;52.268;20.968;2022-11-15T04:43:24;7.50;99.90
17200;DHT22;8716;52.268;20.968;2022-11-15T04:46:12;7.50;99.90
17200;DHT22;8716;52.268;20.968;2022-11-15T04:48:58;7.60;99.90
17200;DHT22;8716;52.268;20.968;2022-11-15T04:51:45;7.60;99.90
17200;DHT22;8716;52.268;20.968;2022-11-15T04:54:32;7.60;99.90
17200;DHT22;8716;52.268;20.968;2022-11-15T04:57:18;7.60;99.90
17200;DHT22;8716;52.268;20.968;2022-11-15T05:00:07;7.60;99.90
17200;DHT22;8716;52.268;20.968;2022-11-15T05:02:56;7.60;99.90
17200;DHT22;8716;52.268;20.968;2022-11-15T05:06:01;7.60;99.90
17200;DHT22;8716;52.268;20.968;2022-11-15T05:08:48;7.60;99.90
17200;DHT22;8716;52.268;20.968;2022-11-15T05:11:35;7.50;99.90
17200;DHT22;8716;52.268;20.968;2022-11-15T05:14:22;7.50;99.90
17200;DHT22;8716;52.268;20.968;2022-11-15T05:17:08;7.50;99.90
17200;DHT22;8716;52.268;20.968;2022-11-15T05:19:56;7.60;99.90
17200;DHT22;8716;52.268;20.968;2022-11-15T05:22:42;7.50;99.90
17200;DHT22;8716;52.268;20.968;2022-11-15T05:25:29;7.50;99.90
17200;DHT22;8716;52.268;20.968;2022-11-15T05:28:16;7.50;99.90
17200;DHT22;8716;52.268;20.968;2022-11-15T05:31:03;7.50;99.90
17200;DHT22;8716;52.268;20.968;2022-11-15T05:33:51;7.50;99.90
17200;DHT22;8716;52.268;20.968;2022-11-15T05:36:42;7.50;99.90
17200;DHT22;8716;52.268;20.968;2022-11-15T05:39:30;7.60;99.90
17200;DHT22;8716;52.268;20.968;2022-11-15T05:42:17;7.50;99.90
17200;DHT22;8716;52.268;20.968;2022-11-15T05:45:06;7.50;99.90
17200;DHT22;8716;52.268;20.968;2022-11-15T05:47:56;7.50;99.90
17200;DHT22;8716;52.268;20.968;2022-11-15T05:50:45;7.50;99.90
17200;DHT22;8716;52.268;20.968;2022-11-15T05:53:35;7.50;99.90
17200;DHT22;8716;52.268;20.968;2022-11-15T05:56:22;7.50;99.90
17200;DHT22;8716;52.268;20.968;2022-11-15T05:59:09;7.50;99.90
17200;DHT22;8716;52.268;20.968;2022-11-15T06:01:57;7.50;99.90
17200;DHT22;8716;52.268;20.968;2022-11-15T06:04:44;7.50;99.90
17200;DHT22;8716;52.268;20.968;2022-11-15T06:07:31;7.50;99.90
17200;DHT22;8716;52.268;20.968;2022-11-15T06:10:19;7.50;99.90
17200;DHT22;8716;52.268;20.968;2022-11-15T06:13:06;7.40;99.90
17200;DHT22;8716;52.268;20.968;2022-11-15T06:15:55;7.40;99.90
17200;DHT22;8716;52.268;20.968;2022-11-15T06:18:41;7.40;99.90
17200;DHT22;8716;52.268;20.968;2022-11-15T06:21:28;7.50;99.90
17200;DHT22;8716;52.268;20.968;2022-11-15T06:24:15;7.50;99.90
17200;DHT22;8716;52.268;20.968;2022-11-15T06:27:03;7.40;99.90
17200;DHT22;8716;52.268;20.968;2022-11-15T06:29:50;7.40;99.90
17200;DHT22;8716;52.268;20.968;2022-11-15T06:32:36;7.50;99.90
17200;DHT22;8716;52.268;20.968;2022-11-15T06:35:23;7.40;99.90
17200;DHT22;8716;52.268;20.968;2022-11-15T06:38:11;7.50;99.90
17200;DHT22;8716;52.268;20.968;2022-11-15T06:41:01;7.40;99.90
17200;DHT22;8716;52.268;20.968;2022-11-15T06:43:49;7.50;99.90
17200;DHT22;8716;52.268;20.968;2022-11-15T06:46:35;7.50;99.90
17200;DHT22;8716;52.268;20.968;2022-11-15T06:49:22;7.50;99.90
17200;DHT22;8716;52.268;20.968;2022-11-15T06:52:09;7.40;99.90
17200;DHT22;8716;52.268;20.968;2022-11-15T06:54:55;7.40;99.90
17200;DHT22;8716;52.268;20.968;2022-11-15T06:57:47;7.30;99.90
17200;DHT22;8716;52.268;20.968;2022-11-15T07:00:35;7.30;99.90
17200;DHT22;8716;52.268;20.968;2022-11-15T07:03:21;7.30;99.90
17200;DHT22;8716;52.268;20.968;2022-11-15T07:06:09;7.30;99.90
17200;DHT22;8716;52.268;20.968;2022-11-15T07:08:56;7.30;99.90
17200;DHT22;8716;52.268;20.968;2022-11-15T07:11:43;7.30;99.90
17200;DHT22;8716;52.268;20.968;2022-11-15T07:14:29;7.40;99.90
17200;DHT22;8716;52.268;20.968;2022-11-15T07:17:17;7.40;99.90
17200;DHT22;8716;52.268;20.968;2022-11-15T07:20:04;7.40;99.90
17200;DHT22;8716;52.268;20.968;2022-11-15T07:22:59;7.40;99.90
17200;DHT22;8716;52.268;20.968;2022-11-15T07:25:47;7.40;99.90
17200;DHT22;8716;52.268;20.968;2022-11-15T07:28:34;7.30;99.90
17200;DHT22;8716;52.268;20.968;2022-11-15T07:31:21;7.30;99.90
17200;DHT22;8716;52.268;20.968;2022-11-15T07:34:09;7.30;99.90
17200;DHT22;8716;52.268;20.968;2022-11-15T07:36:56;7.30;99.90
17200;DHT22;8716;52.268;20.968;2022-11-15T07:39:43;7.30;99.90
17200;DHT22;8716;52.268;20.968;2022-11-15T07:42:31;7.30;99.90
17200;DHT22;8716;52.268;20.968;2022-11-15T07:45:40;7.30;99.90
17200;DHT22;8716;52.268;20.968;2022-11-15T07:48:27;7.30;99.90
17200;DHT22;8716;52.268;20.968;2022-11-15T07:51:29;7.30;99.90
17200;DHT22;8716;52.268;20.968;2022-11-15T07:54:19;7.40;99.90
17200;DHT22;8716;52.268;20.968;2022-11-15T07:57:08;7.40;99.90
17200;DHT22;8716;52.268;20.968;2022-11-15T07:59:55;7.40;99.90
17200;DHT22;8716;52.268;20.968;2022-11-15T08:02:43;7.50;99.90
17200;DHT22;8716;52.268;20.968;2022-11-15T08:05:30;7.40;99.90
17200;DHT22;8716;52.268;20.968;2022-11-15T08:08:23;7.40;99.90
17200;DHT22;8716;52.268;20.968;2022-11-15T08:11:10;7.40;99.90
17200;DHT22;8716;52.268;20.968;2022-11-15T08:13:58;7.40;99.90
17200;DHT22;8716;52.268;20.968;2022-11-15T08:16:44;7.30;99.90
17200;DHT22;8716;52.268;20.968;2022-11-15T08:19:31;7.30;99.90
17200;DHT22;8716;52.268;20.968;2022-11-15T08:22:19;7.40;99.90
17200;DHT22;8716;52.268;20.968;2022-11-15T08:25:10;7.40;99.90
17200;DHT22;8716;52.268;20.968;2022-11-15T08:28:00;7.50;99.90
17200;DHT22;8716;52.268;20.968;2022-11-15T08:30:47;7.50;99.90
17200;DHT22;8716;52.268;20.968;2022-11-15T08:33:35;7.60;99.90
17200;DHT22;8716;52.268;20.968;2022-11-15T08:36:22;7.60;99.90
17200;DHT22;8716;52.268;20.968;2022-11-15T08:39:10;7.70;99.90
17200;DHT22;8716;52.268;20.968;2022-11-15T08:41:58;7.70;99.90
17200;DHT22;8716;52.268;20.968;2022-11-15T08:44:45;7.70;99.90
17200;DHT22;8716;52.268;20.968;2022-11-15T08:47:32;7.70;99.90
17200;DHT22;8716;52.268;20.968;2022-11-15T08:50:19;7.70;99.90
17200;DHT22;8716;52.268;20.968;2022-11-15T08:53:06;7.60;99.90
17200;DHT22;8716;52.268;20.968;2022-11-15T08:55:53;7.60;99.90
17200;DHT22;8716;52.268;20.968;2022-11-15T08:58:41;7.60;99.90
17200;DHT22;8716;52.268;20.968;2022-11-15T09:01:28;7.60;99.90
17200;DHT22;8716;52.268;20.968;2022-11-15T09:04:15;7.70;99.90
17200;DHT22;8716;52.268;20.968;2022-11-15T09:07:02;7.70;99.90
17200;DHT22;8716;52.268;20.968;2022-11-15T09:09:49;7.80;99.90
17200;DHT22;8716;52.268;20.968;2022-11-15T09:12:36;7.80;99.90
17200;DHT22;8716;52.268;20.968;2022-11-15T09:15:24;7.80;99.90
17200;DHT22;8716;52.268;20.968;2022-11-15T09:18:11;7.80;99.90
17200;DHT22;8716;52.268;20.968;2022-11-15T09:20:58;7.80;99.90
17200;DHT22;8716;52.268;20.968;2022-11-15T09:23:45;7.90;99.90
17200;DHT22;8716;52.268;20.968;2022-11-15T09:26:32;8.00;99.90
17200;DHT22;8716;52.268;20.968;2022-11-15T09:29:18;8.00;99.90
17200;DHT22;8716;52.268;20.968;2022-11-15T09:32:06;8.10;99.90
17200;DHT22;8716;52.268;20.968;2022-11-15T09:34:53;8.00;99.90
17200;DHT22;8716;52.268;20.968;2022-11-15T09:37:39;8.10;99.90
17200;DHT22;8716;52.268;20.968;2022-11-15T09:40:26;8.10;99.90
17200;DHT22;8716;52.268;20.968;2022-11-15T09:43:27;8.10;99.90
17200;DHT22;8716;52.268;20.968;2022-11-15T09:46:19;8.10;99.90
17200;DHT22;8716;52.268;20.968;2022-11-15T09:49:25;8.10;99.90
17200;DHT22;8716;52.268;20.968;2022-11-15T09:52:17;8.00;99.90
17200;DHT22;8716;52.268;20.968;2022-11-15T09:54:48;8.10;99.90
17200;DHT22;8716;52.268;20.968;2022-11-15T09:57:28;8.00;99.90
17200;DHT22;8716;52.268;20.968;2022-11-15T10:00:09;8.10;99.90
17200;DHT22;8716;52.268;20.968;2022-11-15T10:03:12;8.00;99.90
17200;DHT22;8716;52.268;20.968;2022-11-15T10:05:43;8.10;99.90
17200;DHT22;8716;52.268;20.968;2022-11-15T10:08:24;8.10;99.90
17200;DHT22;8716;52.268;20.968;2022-11-15T10:10:57;8.10;99.90
17200;DHT22;8716;52.268;20.968;2022-11-15T10:13:47;8.20;99.90
17200;DHT22;8716;52.268;20.968;2022-11-15T10:16:38;8.20;99.90
17200;DHT22;8716;52.268;20.968;2022-11-15T10:19:20;8.10;99.90
17200;DHT22;8716;52.268;20.968;2022-11-15T10:21:59;8.20;99.90
17200;DHT22;8716;52.268;20.968;2022-11-15T10:24:30;8.30;99.90
17200;DHT22;8716;52.268;20.968;2022-11-15T10:27:04;8.30;99.90
17200;DHT22;8716;52.268;20.968;2022-11-15T10:29:34;8.30;99.90
17200;DHT22;8716;52.268;20.968;2022-11-15T10:32:02;8.40;99.90
17200;DHT22;8716;52.268;20.968;2022-11-15T10:34:35;8.40;99.90
17200;DHT22;8716;52.268;20.968;2022-11-15T10:37:05;8.40;99.90
17200;DHT22;8716;52.268;20.968;2022-11-15T10:39:34;8.30;99.90
17200;DHT22;8716;52.268;20.968;2022-11-15T10:42:15;8.40;99.90
17200;DHT22;8716;52.268;20.968;2022-11-15T10:44:44;8.40;99.90
17200;DHT22;8716;52.268;20.968;2022-11-15T10:47:25;8.40;99.90
17200;DHT22;8716;52.268;20.968;2022-11-15T10:49:56;8.40;99.90
17200;DHT22;8716;52.268;20.968;2022-11-15T10:52:26;8.40;99.90
17200;DHT22;8716;52.268;20.968;2022-11-15T10:55:01;8.40;99.90
17200;DHT22;8716;52.268;20.968;2022-11-15T10:57:36;8.50;99.90
17200;DHT22;8716;52.268;20.968;2022-11-15T11:00:06;8.50;99.90
17200;DHT22;8716;52.268;20.968;2022-11-15T11:02:36;8.40;99.90
17200;DHT22;8716;52.268;20.968;2022-11-15T11:05:24;8.40;99.90
17200;DHT22;8716;52.268;20.968;2022-11-15T11:07:58;8.50;99.90
17200;DHT22;8716;52.268;20.968;2022-11-15T11:10:28;8.50;99.90
17200;DHT22;8716;52.268;20.968;2022-11-15T11:13:23;8.50;99.90
17200;DHT22;8716;52.268;20.968;2022-11-15T11:15:55;8.50;99.90
17200;DHT22;8716;52.268;20.968;2022-11-15T11:18:30;8.50;99.90
17200;DHT22;8716;52.268;20.968;2022-11-15T11:21:09;8.40;99.90
17200;DHT22;8716;52.268;20.968;2022-11-15T11:23:45;8.40;99.90
17200;DHT22;8716;52.268;20.968;2022-11-15T11:26:35;8.50;99.90
17200;DHT22;8716;52.268;20.968;2022-11-15T11:29:19;8.50;99.90
17200;DHT22;8716;52.268;20.968;2022-11-15T11:31:55;8.50;99.90
17200;DHT22;8716;52.268;20.968;2022-11-15T11:34:36;8.60;99.90
17200;DHT22;8716;52.268;20.968;2022-11-15T11:37:14;8.60;99.90
17200;DHT22;8716;52.268;20.968;2022-11-15T11:39:53;8.60;99.90
17200;DHT22;8716;52.268;20.968;2022-11-15T11:42:32;8.60;99.90
17200;DHT22;8716;52.268;20.968;2022-11-15T11:45:15;8.60;99.90
17200;DHT22;8716;52.268;20.968;2022-11-15T11:47:48;8.60;99.90
17200;DHT22;8716;52.268;20.968;2022-11-15T11:50:20;8.60;99.90
17200;DHT22;8716;52.268;20.968;2022-11-15T11:52:56;8.60;99.90
17200;DHT22;8716;52.268;20.968;2022-11-15T11:55:33;8.60;99.90
17200;DHT22;8716;52.268;20.968;2022-11-15T11:58:12;8.60;99.90
17200;DHT22;8716;52.268;20.968;2022-11-15T12:00:44;8.70;99.90
17200;DHT22;8716;52.268;20.968;2022-11-15T12:03:19;8.70;99.90
17200;DHT22;8716;52.268;20.968;2022-11-15T12:05:53;8.80;99.90
17200;DHT22;8716;52.268;20.968;2022-11-15T12:08:32;8.80;99.90
17200;DHT22;8716;52.268;20.968;2022-11-15T12:11:10;8.80;99.90
17200;DHT22;8716;52.268;20.968;2022-11-15T12:13:40;8.80;99.90
17200;DHT22;8716;52.268;20.968;2022-11-15T12:16:14;8.80;99.90
17200;DHT22;8716;52.268;20.968;2022-11-15T12:18:47;8.80;99.90
17200;DHT22;8716;52.268;20.968;2022-11-15T12:21:21;8.70;99.90
17200;DHT22;8716;52.268;20.968;2022-11-15T12:23:59;8.80;99.90
17200;DHT22;8716;52.268;20.968;2022-11-15T12:26:36;8.80;99.90
17200;DHT22;8716;52.268;20.968;2022-11-15T12:29:10;8.80;99.90
17200;DHT22;8716;52.268;20.968;2022-11-15T12:31:41;8.80;99.90
17200;DHT22;8716;52.268;20.968;2022-11-15T12:34:29;8.90;99.90
17200;DHT22;8716;52.268;20.968;2022-11-15T12:37:02;8.90;99.90
17200;DHT22;8716;52.268;20.968;2022-11-15T12:40:16;8.90;99.90
17200;DHT22;8716;52.268;20.968;2022-11-15T12:45:41;8.80;99.90
17200;DHT22;8716;52.268;20.968;2022-11-15T12:48:48;8.80;99.90
17200;DHT22;8716;52.268;20.968;2022-11-15T12:51:19;8.90;99.90
17200;DHT22;8716;52.268;20.968;2022-11-15T12:53:47;8.80;99.90
17200;DHT22;8716;52.268;20.968;2022-11-15T12:56:23;8.90;99.90
17200;DHT22;8716;52.268;20.968;2022-11-15T12:58:55;8.80;99.90
17200;DHT22;8716;52.268;20.968;2022-11-15T13:01:53;8.90;99.90
17200;DHT22;8716;52.268;20.968;2022-11-15T13:04:25;9.00;99.90
17200;DHT22;8716;52.268;20.968;2022-11-15T13:06:56;9.00;99.90
17200;DHT22;8716;52.268;20.968;2022-11-15T13:09:51;8.90;99.90
17200;DHT22;8716;52.268;20.968;2022-11-15T13:12:50;9.00;99.90
17200;DHT22;8716;52.268;20.968;2022-11-15T13:18:32;8.90;99.90
17200;DHT22;8716;52.268;20.968;2022-11-15T13:21:04;9.00;99.90
17200;DHT22;8716;52.268;20.968;2022-11-15T13:23:52;8.90;99.90
17200;DHT22;8716;52.268;20.968;2022-11-15T13:26:23;8.90;99.90
17200;DHT22;8716;52.268;20.968;2022-11-15T13:28:53;9.00;99.90
17200;DHT22;8716;52.268;20.968;2022-11-15T13:31:28;8.90;99.90
17200;DHT22;8716;52.268;20.968;2022-11-15T13:34:00;9.00;99.90
17200;DHT22;8716;52.268;20.968;2022-11-15T13:36:31;8.90;99.90
17200;DHT22;8716;52.268;20.968;2022-11-15T13:39:03;9.00;99.90
17200;DHT22;8716;52.268;20.968;2022-11-15T13:41:33;8.90;99.90
17200;DHT22;8716;52.268;20.968;2022-11-15T13:44:03;8.90;99.90
17200;DHT22;8716;52.268;20.968;2022-11-15T13:46:32;8.90;99.90
17200;DHT22;8716;52.268;20.968;2022-11-15T13:49:03;8.90;99.90
17200;DHT22;8716;52.268;20.968;2022-11-15T13:51:35;8.90;99.90
17200;DHT22;8716;52.268;20.968;2022-11-15T13:54:18;8.90;99.90
17200;DHT22;8716;52.268;20.968;2022-11-15T13:56:49;8.90;99.90
17200;DHT22;8716;52.268;20.968;2022-11-15T13:59:25;8.90;99.90
17200;DHT22;8716;52.268;20.968;2022-11-15T14:01:54;8.90;99.90
17200;DHT22;8716;52.268;20.968;2022-11-15T14:04:24;9.00;99.90
17200;DHT22;8716;52.268;20.968;2022-11-15T14:06:56;8.90;99.90
17200;DHT22;8716;52.268;20.968;2022-11-15T14:09:36;8.90;99.90
17200;DHT22;8716;52.268;20.968;2022-11-15T14:12:24;8.90;99.90
17200;DHT22;8716;52.268;20.968;2022-11-15T14:14:55;9.00;99.90
17200;DHT22;8716;52.268;20.968;2022-11-15T14:17:35;8.90;99.90
17200;DHT22;8716;52.268;20.968;2022-11-15T14:20:28;8.90;99.90
17200;DHT22;8716;52.268;20.968;2022-11-15T14:22:59;8.80;99.90
17200;DHT22;8716;52.268;20.968;2022-11-15T14:25:29;8.80;99.90
17200;DHT22;8716;52.268;20.968;2022-11-15T14:28:29;8.80;99.90
17200;DHT22;8716;52.268;20.968;2022-11-15T14:30:59;8.80;99.90
17200;DHT22;8716;52.268;20.968;2022-11-15T14:33:30;8.80;99.90
17200;DHT22;8716;52.268;20.968;2022-11-15T14:36:03;8.70;99.90
17200;DHT22;8716;52.268;20.968;2022-11-15T14:38:32;8.70;99.90
17200;DHT22;8716;52.268;20.968;2022-11-15T14:41:02;8.70;99.90
17200;DHT22;8716;52.268;20.968;2022-11-15T14:43:30;8.70;99.90
17200;DHT22;8716;52.268;20.968;2022-11-15T14:45:59;8.70;99.90
17200;DHT22;8716;52.268;20.968;2022-11-15T14:48:27;8.70;99.90
17200;DHT22;8716;52.268;20.968;2022-11-15T14:50:56;8.60;99.90
17200;DHT22;8716;52.268;20.968;2022-11-15T14:53:24;8.60;99.90
17200;DHT22;8716;52.268;20.968;2022-11-15T14:55:52;8.60;99.90
17200;DHT22;8716;52.268;20.968;2022-11-15T14:58:20;8.60;99.90
17200;DHT22;8716;52.268;20.968;2022-11-15T15:00:48;8.60;99.90
17200;DHT22;8716;52.268;20.968;2022-11-15T15:03:18;8.50;99.90
17200;DHT22;8716;52.268;20.968;2022-11-15T15:05:46;8.50;99.90
17200;DHT22;8716;52.268;20.968;2022-11-15T15:08:14;8.50;99.90
17200;DHT22;8716;52.268;20.968;2022-11-15T15:10:44;8.40;99.90
17200;DHT22;8716;52.268;20.968;2022-11-15T15:13:17;8.40;99.90
17200;DHT22;8716;52.268;20.968;2022-11-15T15:16:09;8.40;99.90
17200;DHT22;8716;52.268;20.968;2022-11-15T15:19:45;8.40;99.90
17200;DHT22;8716;52.268;20.968;2022-11-15T15:22:16;8.50;99.90
17200;DHT22;8716;52.268;20.968;2022-11-15T15:24:46;8.50;99.90
17200;DHT22;8716;52.268;20.968;2022-11-15T15:27:15;8.50;99.90
17200;DHT22;8716;52.268;20.968;2022-11-15T15:29:44;8.50;99.90
17200;DHT22;8716;52.268;20.968;2022-11-15T15:32:57;8.50;99.90
17200;DHT22;8716;52.268;20.968;2022-11-15T15:35:34;8.50;99.90
17200;DHT22;8716;52.268;20.968;2022-11-15T15:38:18;8.50;99.90
17200;DHT22;8716;52.268;20.968;2022-11-15T15:40:58;8.50;99.90
17200;DHT22;8716;52.268;20.968;2022-11-15T15:43:30;8.50;99.90
17200;DHT22;8716;52.268;20.968;2022-11-15T15:45:59;8.40;99.90
17200;DHT22;8716;52.268;20.968;2022-11-15T15:48:29;8.40;99.90
17200;DHT22;8716;52.268;20.968;2022-11-15T15:51:55;8.40;99.90
17200;DHT22;8716;52.268;20.968;2022-11-15T15:54:27;8.30;99.90
17200;DHT22;8716;52.268;20.968;2022-11-15T16:00:17;8.30;99.90
17200;DHT22;8716;52.268;20.968;2022-11-15T16:02:50;8.40;99.90
17200;DHT22;8716;52.268;20.968;2022-11-15T16:05:22;8.30;99.90
17200;DHT22;8716;52.268;20.968;2022-11-15T16:08:19;8.20;99.90
17200;DHT22;8716;52.268;20.968;2022-11-15T16:11:30;8.30;99.90
17200;DHT22;8716;52.268;20.968;2022-11-15T16:15:38;8.30;99.90
17200;DHT22;8716;52.268;20.968;2022-11-15T16:17:44;8.20;99.90
17200;DHT22;8716;52.268;20.968;2022-11-15T16:20:31;8.30;99.90
17200;DHT22;8716;52.268;20.968;2022-11-15T16:23:02;8.20;99.90
17200;DHT22;8716;52.268;20.968;2022-11-15T16:26:10;8.20;99.90
17200;DHT22;8716;52.268;20.968;2022-11-15T16:29:02;8.20;99.90
17200;DHT22;8716;52.268;20.968;2022-11-15T16:31:47;8.20;99.90
17200;DHT22;8716;52.268;20.968;2022-11-15T16:34:16;8.30;99.90
17200;DHT22;8716;52.268;20.968;2022-11-15T16:36:44;8.30;99.90
17200;DHT22;8716;52.268;20.968;2022-11-15T16:56:32;8.20;99.90
17200;DHT22;8716;52.268;20.968;2022-11-15T16:58:36;8.10;99.90
17200;DHT22;8716;52.268;20.968;2022-11-15T17:01:29;8.20;99.90
17200;DHT22;8716;52.268;20.968;2022-11-15T17:05:16;8.10;99.90
17200;DHT22;8716;52.268;20.968;2022-11-15T17:11:22;7.70;99.90
17200;DHT22;8716;52.268;20.968;2022-11-15T17:17:55;7.50;99.90
17200;DHT22;8716;52.268;20.968;2022-11-15T17:20:26;7.40;99.90
17200;DHT22;8716;52.268;20.968;2022-11-15T17:35:00;7.60;99.90
17200;DHT22;8716;52.268;20.968;2022-11-15T17:37:35;7.60;99.90
17200;DHT22;8716;52.268;20.968;2022-11-15T17:40:22;7.70;99.90
17200;DHT22;8716;52.268;20.968;2022-11-15T17:43:12;7.70;99.90
17200;DHT22;8716;52.268;20.968;2022-11-15T17:50:22;7.70;99.90
17200;DHT22;8716;52.268;20.968;2022-11-15T17:57:10;7.70;99.90
17200;DHT22;8716;52.268;20.968;2022-11-15T17:59:38;7.60;99.90
17200;DHT22;8716;52.268;20.968;2022-11-15T18:02:09;7.60;99.90
17200;DHT22;8716;52.268;20.968;2022-11-15T18:04:37;7.60;99.90
17200;DHT22;8716;52.268;20.968;2022-11-15T18:07:10;7.70;99.90
17200;DHT22;8716;52.268;20.968;2022-11-15T18:09:40;7.70;99.90
17200;DHT22;8716;52.268;20.968;2022-11-15T18:12:12;7.60;99.90
17200;DHT22;8716;52.268;20.968;2022-11-15T18:14:40;7.50;99.90
17200;DHT22;8716;52.268;20.968;2022-11-15T18:17:08;7.50;99.90
17200;DHT22;8716;52.268;20.968;2022-11-15T18:19:36;7.60;99.90
17200;DHT22;8716;52.268;20.968;2022-11-15T18:22:04;7.60;99.90
17200;DHT22;8716;52.268;20.968;2022-11-15T18:24:37;7.60;99.90
17200;DHT22;8716;52.268;20.968;2022-11-15T18:27:05;7.50;99.90